createdAt,value
2019-03-09T00:02:18.581Z,14.10
2019-03-09T00:04:48.234Z,11.60
2019-03-09T00:07:17.813Z,18.43
2019-03-09T00:09:47.519Z,10.70
2019-03-09T00:12:17.026Z,11.03
2019-03-09T00:14:47.627Z,12.20
2019-03-09T00:17:17.175Z,12.33
2019-03-09T00:19:46.679Z,13.67
2019-03-09T00:22:16.506Z,10.43
2019-03-09T00:24:49.187Z,10.67
2019-03-09T00:27:29.227Z,7.93
2019-03-09T00:30:01.911Z,11.57
2019-03-09T00:32:31.599Z,8.60
2019-03-09T00:35:01.126Z,14.57
2019-03-09T00:37:37.275Z,10.10
2019-03-09T00:40:09.445Z,11.20
2019-03-09T00:42:39.095Z,9.50
2019-03-09T00:45:08.984Z,14.50
2019-03-09T00:47:40.270Z,9.30
2019-03-09T00:50:11.649Z,10.67
2019-03-09T00:52:41.114Z,13.53
2019-03-09T00:55:12.469Z,14.50
2019-03-09T00:57:42.093Z,13.27
2019-03-09T01:00:19.257Z,11.97
2019-03-09T01:02:51.077Z,12.77
2019-03-09T01:05:20.286Z,13.70
2019-03-09T01:07:50.957Z,13.53
2019-03-09T01:10:20.575Z,14.27
2019-03-09T01:12:50.164Z,10.60
2019-03-09T01:15:19.950Z,13.80
2019-03-09T01:20:30.974Z,16.13
2019-03-09T01:23:00.545Z,16.40
2019-03-09T01:25:30.091Z,17.40
2019-03-09T01:27:59.682Z,15.33
2019-03-09T01:30:29.268Z,19.83
2019-03-09T01:32:58.848Z,18.90
2019-03-09T01:35:28.430Z,13.63
2019-03-09T01:37:58.068Z,16.70
2019-03-09T01:40:27.670Z,14.40
2019-03-09T01:42:58.913Z,15.57
2019-03-09T01:45:28.504Z,16.83
2019-03-09T01:47:58.355Z,15.57
2019-03-09T01:50:33.103Z,12.17
2019-03-09T01:53:02.632Z,14.77
2019-03-09T01:55:32.129Z,14.63
2019-03-09T01:58:01.701Z,12.57
2019-03-09T02:00:32.830Z,16.13
2019-03-09T02:03:02.349Z,12.63
2019-03-09T02:05:31.962Z,14.73
2019-03-09T02:08:01.560Z,13.20
2019-03-09T02:10:32.742Z,16.23
2019-03-09T02:13:02.384Z,10.70
2019-03-09T02:15:32.076Z,12.70
2019-03-09T02:18:01.600Z,13.33
2019-03-09T02:20:31.338Z,17.43
2019-03-09T02:23:01.047Z,12.27
2019-03-09T02:25:30.574Z,12.53
2019-03-09T02:28:00.101Z,12.93
2019-03-09T02:30:29.937Z,12.33
2019-03-09T02:32:59.588Z,11.73
2019-03-09T02:35:29.217Z,16.23
2019-03-09T02:38:00.550Z,15.27
2019-03-09T02:40:31.173Z,14.37
2019-03-09T02:43:14.485Z,13.50
2019-03-09T02:45:44.046Z,12.00
2019-03-09T02:48:13.687Z,11.73
2019-03-09T02:50:56.428Z,12.97
2019-03-09T02:53:26.788Z,16.53
2019-03-09T02:55:56.404Z,12.23
2019-03-09T02:58:26.054Z,8.97
2019-03-09T03:00:59.888Z,13.07
2019-03-09T03:03:31.028Z,11.67
2019-03-09T03:06:00.620Z,11.60
2019-03-09T03:08:30.231Z,13.17
2019-03-09T03:10:59.787Z,14.90
2019-03-09T03:13:29.263Z,17.67
2019-03-09T03:15:58.805Z,12.17
2019-03-09T03:18:29.392Z,17.70
2019-03-09T03:20:58.931Z,17.90
2019-03-09T03:23:30.016Z,14.10
2019-03-09T03:25:59.603Z,17.57
2019-03-09T03:28:29.163Z,14.37
2019-03-09T03:30:58.832Z,13.23
2019-03-09T03:33:28.454Z,19.23
2019-03-09T03:35:58.026Z,12.73
2019-03-09T03:38:27.507Z,13.53
2019-03-09T03:40:57.037Z,15.63
2019-03-09T03:43:26.658Z,17.13
2019-03-09T03:45:56.409Z,18.63
2019-03-09T03:48:27.216Z,15.43
2019-03-09T03:50:56.680Z,13.43
2019-03-09T03:53:26.292Z,14.23
2019-03-09T03:55:55.903Z,17.57
2019-03-09T03:58:25.527Z,14.80
2019-03-09T04:00:58.292Z,17.43
2019-03-09T04:03:27.878Z,14.40
2019-03-09T04:05:57.494Z,13.73
2019-03-09T04:08:27.264Z,14.83
2019-03-09T04:10:57.077Z,9.63
2019-03-09T04:13:26.815Z,15.37
2019-03-09T04:15:56.329Z,14.97
2019-03-09T04:18:25.999Z,14.00
2019-03-09T04:20:55.629Z,11.83
2019-03-09T04:23:25.130Z,10.87
2019-03-09T04:25:56.277Z,13.90
2019-03-09T04:28:25.853Z,17.10
2019-03-09T04:30:55.464Z,14.13
2019-03-09T04:33:29.255Z,10.37
2019-03-09T04:35:58.765Z,10.00
2019-03-09T04:38:28.232Z,10.57
2019-03-09T04:40:57.794Z,9.83
2019-03-09T04:43:27.289Z,9.97
2019-03-09T04:45:56.878Z,10.33
2019-03-09T04:48:27.981Z,15.70
2019-03-09T04:50:57.545Z,12.43
2019-03-09T04:53:26.975Z,13.23
2019-03-09T04:55:56.489Z,9.27
2019-03-09T04:58:26.082Z,10.87
2019-03-09T05:00:55.610Z,14.10
2019-03-09T05:03:25.185Z,12.70
2019-03-09T05:05:54.682Z,14.17
2019-03-09T05:08:30.379Z,11.43
2019-03-09T05:11:03.353Z,14.87
2019-03-09T05:13:35.532Z,9.70
2019-03-09T05:16:05.167Z,7.20
2019-03-09T05:18:34.762Z,4.53
2019-03-09T05:21:04.286Z,4.70
2019-03-09T05:23:33.811Z,7.77
2019-03-09T05:26:04.990Z,10.13
2019-03-09T05:28:34.427Z,10.33
2019-03-09T05:31:04.024Z,10.87
2019-03-09T05:33:33.490Z,12.33
2019-03-09T05:36:02.917Z,7.90
2019-03-09T05:38:32.456Z,9.17
2019-03-09T05:41:01.911Z,9.47
2019-03-09T05:43:31.406Z,10.23
2019-03-09T05:46:00.968Z,9.80
2019-03-09T05:48:30.524Z,12.17
2019-03-09T05:51:00.230Z,9.47
2019-03-09T05:53:30.909Z,9.47
2019-03-09T05:56:00.530Z,9.87
2019-03-09T05:58:30.185Z,10.60
2019-03-09T06:00:59.800Z,10.23
2019-03-09T06:03:29.249Z,9.33
2019-03-09T06:05:58.848Z,8.43
2019-03-09T06:08:30.005Z,11.47
2019-03-09T06:11:00.972Z,10.40
2019-03-09T06:13:30.611Z,10.63
2019-03-09T06:16:00.137Z,9.93
2019-03-09T06:18:29.681Z,11.20
2019-03-09T06:20:59.252Z,11.50
2019-03-09T06:23:28.897Z,8.17
2019-03-09T06:25:58.488Z,13.23
2019-03-09T06:28:28.052Z,10.77
2019-03-09T06:30:59.093Z,10.03
2019-03-09T06:33:30.107Z,11.97
2019-03-09T06:36:11.631Z,15.23
2019-03-09T06:38:49.989Z,11.17
2019-03-09T06:41:25.437Z,13.40
2019-03-09T06:43:55.045Z,12.07
2019-03-09T06:46:24.612Z,10.50
2019-03-09T06:48:55.210Z,13.77
2019-03-09T06:51:24.633Z,10.77
2019-03-09T06:53:54.135Z,11.23
2019-03-09T06:56:25.258Z,10.77
2019-03-09T06:58:54.877Z,13.67
2019-03-09T07:01:24.650Z,11.47
2019-03-09T07:03:54.224Z,17.30
2019-03-09T07:06:23.833Z,11.77
2019-03-09T07:08:53.335Z,10.07
2019-03-09T07:11:22.844Z,12.67
2019-03-09T07:13:53.270Z,7.97
2019-03-09T07:16:23.083Z,15.70
2019-03-09T07:18:57.671Z,9.80
2019-03-09T07:21:27.315Z,9.73
2019-03-09T07:23:59.807Z,11.30
2019-03-09T07:26:29.268Z,10.40
2019-03-09T07:28:58.894Z,10.13
2019-03-09T07:31:28.426Z,11.17
2019-03-09T07:34:22.676Z,13.90
2019-03-09T07:36:52.259Z,12.03
2019-03-09T07:39:21.743Z,12.20
2019-03-09T07:41:51.475Z,15.53
2019-03-09T07:44:21.111Z,13.97
2019-03-09T07:46:50.725Z,12.87
2019-03-09T07:49:20.165Z,15.17
2019-03-09T07:51:51.937Z,13.63
2019-03-09T07:54:21.248Z,13.10
2019-03-09T07:56:51.936Z,11.53
2019-03-09T07:59:21.530Z,13.13
2019-03-09T08:01:51.070Z,11.70
2019-03-09T08:04:20.602Z,11.47
2019-03-09T08:06:50.069Z,10.63
2019-03-09T08:09:19.509Z,8.33
2019-03-09T08:11:48.979Z,9.47
2019-03-09T08:14:18.527Z,8.20
2019-03-09T08:16:49.768Z,9.23
2019-03-09T08:19:19.477Z,9.10
2019-03-09T08:21:49.018Z,7.50
2019-03-09T08:24:18.482Z,7.73
2019-03-09T08:26:47.982Z,7.57
2019-03-09T08:29:17.521Z,9.37
2019-03-09T08:31:47.043Z,7.87
2019-03-09T08:34:16.652Z,9.53
2019-03-09T08:36:46.088Z,8.50
2019-03-09T08:39:16.758Z,10.50
2019-03-09T08:41:46.271Z,8.00
2019-03-09T08:44:16.425Z,8.80
2019-03-09T08:46:45.984Z,10.00
2019-03-09T08:49:16.593Z,11.43
2019-03-09T08:51:46.174Z,9.07
2019-03-09T08:54:17.291Z,7.27
2019-03-09T08:56:47.190Z,8.33
2019-03-09T08:59:16.778Z,12.30
2019-03-09T09:01:46.390Z,7.77
2019-03-09T09:04:16.109Z,7.93
2019-03-09T09:06:45.736Z,7.70
2019-03-09T09:09:15.565Z,10.90
2019-03-09T09:11:45.107Z,8.37
2019-03-09T09:14:14.565Z,8.30
2019-03-09T09:16:44.391Z,7.47
2019-03-09T09:19:14.022Z,6.30
2019-03-09T09:21:43.453Z,6.07
2019-03-09T09:24:13.114Z,6.90
2019-03-09T09:26:43.006Z,6.47
2019-03-09T09:29:12.660Z,7.70
2019-03-09T09:31:42.405Z,8.23
2019-03-09T09:34:12.555Z,6.50
2019-03-09T09:36:43.190Z,7.93
2019-03-09T09:39:13.019Z,7.33
2019-03-09T09:41:42.647Z,6.40
2019-03-09T09:44:13.221Z,9.50
2019-03-09T09:46:42.799Z,6.97
2019-03-09T09:49:12.533Z,6.80
2019-03-09T09:51:42.170Z,7.17
2019-03-09T09:54:11.939Z,5.83
2019-03-09T09:56:41.737Z,5.23
2019-03-09T09:59:11.310Z,8.47
2019-03-09T10:01:41.285Z,5.60
2019-03-09T10:04:11.033Z,7.00
2019-03-09T10:06:40.798Z,6.10
2019-03-09T10:09:10.451Z,5.20
2019-03-09T10:11:40.036Z,3.27
2019-03-09T10:14:09.628Z,4.73
2019-03-09T10:16:39.362Z,4.33
2019-03-09T10:19:11.060Z,4.47
2019-03-09T10:21:40.127Z,3.53
2019-03-09T10:24:09.743Z,5.03
2019-03-09T10:26:39.424Z,3.60
2019-03-09T10:29:09.015Z,4.17
2019-03-09T10:31:38.592Z,6.47
2019-03-09T10:34:08.211Z,3.90
2019-03-09T10:36:37.732Z,5.10
2019-03-09T10:39:07.309Z,6.13
2019-03-09T10:41:40.549Z,6.57
2019-03-09T10:44:10.381Z,3.63
2019-03-09T10:46:40.005Z,4.47
2019-03-09T10:49:09.607Z,3.80
2019-03-09T10:51:40.221Z,4.83
2019-03-09T10:54:09.781Z,6.03
2019-03-09T10:56:39.436Z,4.13
2019-03-09T10:59:09.113Z,5.60
2019-03-09T11:01:39.761Z,9.93
2019-03-09T11:04:09.635Z,6.80
2019-03-09T11:06:39.412Z,9.23
2019-03-09T11:09:09.397Z,8.97
2019-03-09T11:11:39.112Z,8.70
2019-03-09T11:14:08.590Z,6.17
2019-03-09T11:16:39.118Z,9.13
2019-03-09T11:19:08.815Z,7.70
2019-03-09T11:21:38.500Z,5.57
2019-03-09T11:24:08.113Z,8.43
2019-03-09T11:26:37.621Z,5.67
2019-03-09T11:29:07.233Z,7.67
2019-03-09T11:31:36.802Z,5.97
2019-03-09T11:34:06.377Z,8.50
2019-03-09T11:36:36.082Z,10.03
2019-03-09T11:39:07.109Z,7.23
2019-03-09T11:41:37.069Z,6.77
2019-03-09T11:44:06.642Z,7.23
2019-03-09T11:46:37.243Z,8.67
2019-03-09T11:49:06.947Z,5.20
2019-03-09T11:51:37.763Z,5.00
2019-03-09T11:54:07.188Z,4.53
2019-03-09T11:56:36.767Z,4.00
2019-03-09T11:59:06.263Z,4.17
2019-03-09T12:01:36.858Z,4.50
2019-03-09T12:04:06.285Z,4.47
2019-03-09T12:06:35.794Z,4.70
2019-03-09T12:09:06.169Z,5.23
2019-03-09T12:11:37.258Z,4.60
2019-03-09T12:14:06.845Z,7.13
2019-03-09T12:16:36.500Z,6.13
2019-03-09T12:19:06.164Z,3.47
2019-03-09T12:21:35.749Z,4.67
2019-03-09T12:24:15.847Z,3.00
2019-03-09T12:26:36.460Z,6.17
2019-03-09T12:29:06.063Z,7.30
2019-03-09T12:31:35.594Z,5.93
2019-03-09T12:34:05.153Z,5.33
2019-03-09T12:36:34.716Z,5.80
2019-03-09T12:39:09.251Z,6.73
2019-03-09T12:41:38.839Z,3.47
2019-03-09T12:44:08.274Z,4.13
2019-03-09T12:46:37.856Z,3.27
2019-03-09T12:49:07.569Z,2.77
2019-03-09T12:51:37.111Z,4.40
2019-03-09T12:54:06.799Z,4.13
2019-03-09T12:56:36.314Z,3.33
2019-03-09T12:59:05.839Z,2.37
2019-03-09T13:01:35.466Z,1.67
2019-03-09T13:04:07.975Z,1.80
2019-03-09T13:06:37.478Z,1.63
2019-03-09T13:09:07.020Z,3.77
2019-03-09T13:11:43.982Z,1.77
2019-03-09T13:14:13.474Z,4.00
2019-03-09T13:16:43.164Z,5.70
2019-03-09T13:19:12.740Z,4.03
2019-03-09T13:21:42.466Z,4.73
2019-03-09T13:24:12.065Z,3.93
2019-03-09T13:26:41.631Z,3.97
2019-03-09T13:29:11.218Z,5.87
2019-03-09T13:31:40.767Z,2.77
2019-03-09T13:34:10.300Z,7.27
2019-03-09T13:36:39.891Z,2.57
2019-03-09T13:39:09.485Z,3.90
2019-03-09T13:41:39.099Z,4.07
2019-03-09T13:44:09.801Z,3.50
2019-03-09T13:46:39.221Z,5.60
2019-03-09T13:49:08.656Z,3.57
2019-03-09T13:51:38.214Z,3.63
2019-03-09T13:54:07.720Z,4.27
2019-03-09T13:56:37.357Z,4.80
2019-03-09T13:59:07.828Z,4.23
2019-03-09T14:01:37.502Z,6.67
2019-03-09T14:04:06.954Z,4.53
2019-03-09T14:06:36.634Z,6.57
2019-03-09T14:09:06.971Z,3.67
2019-03-09T14:11:37.454Z,3.30
2019-03-09T14:14:07.103Z,5.77
2019-03-09T14:16:36.570Z,3.53
2019-03-09T14:19:06.170Z,2.10
2019-03-09T14:21:35.984Z,4.53
2019-03-09T14:24:05.608Z,3.53
2019-03-09T14:26:35.178Z,4.13
2019-03-09T14:29:05.355Z,3.03
2019-03-09T14:31:35.118Z,5.63
2019-03-09T14:34:04.784Z,5.03
2019-03-09T14:36:34.388Z,3.17
2019-03-09T14:39:04.781Z,3.47
2019-03-09T14:41:35.418Z,3.07
2019-03-09T14:44:04.978Z,4.00
2019-03-09T14:46:34.580Z,4.87
2019-03-09T14:49:04.302Z,5.77
2019-03-09T14:51:35.367Z,3.17
2019-03-09T14:54:04.991Z,4.57
2019-03-09T14:56:34.574Z,4.03
2019-03-09T14:59:04.285Z,3.73
2019-03-09T15:01:33.956Z,5.30
2019-03-09T15:04:03.642Z,6.20
2019-03-09T15:06:33.265Z,4.47
2019-03-09T15:09:03.256Z,4.47
2019-03-09T15:11:34.458Z,4.70
2019-03-09T15:14:04.309Z,5.53
2019-03-09T15:16:34.022Z,3.57
2019-03-09T15:19:03.603Z,6.37
2019-03-09T15:21:33.227Z,5.90
2019-03-09T15:24:02.786Z,4.83
2019-03-09T15:26:32.452Z,3.77
2019-03-09T15:29:01.960Z,3.77
2019-03-09T15:31:31.626Z,4.97
2019-03-09T15:34:02.204Z,6.30
2019-03-09T15:36:32.019Z,7.63
2019-03-09T15:39:01.568Z,8.53
2019-03-09T15:41:32.805Z,5.27
2019-03-09T15:44:02.365Z,7.03
2019-03-09T15:46:32.042Z,5.47
2019-03-09T15:49:01.755Z,3.87
2019-03-09T15:51:31.357Z,5.87
2019-03-09T15:54:00.898Z,7.30
2019-03-09T15:56:30.505Z,6.67
2019-03-09T15:59:00.136Z,10.00
2019-03-09T16:01:29.734Z,7.40
2019-03-09T16:03:59.182Z,9.03
2019-03-09T16:06:28.771Z,7.93
2019-03-09T16:08:59.469Z,9.30
2019-03-09T16:11:28.838Z,7.77
2019-03-09T16:13:58.538Z,9.93
2019-03-09T16:16:28.111Z,9.60
2019-03-09T16:18:57.623Z,10.53
2019-03-09T16:21:27.268Z,8.57
2019-03-09T16:23:56.715Z,11.63
2019-03-09T16:26:26.222Z,11.77
2019-03-09T16:28:55.823Z,11.40
2019-03-09T16:31:25.424Z,14.53
2019-03-09T16:33:55.009Z,11.90
2019-03-09T16:36:24.638Z,10.40
2019-03-09T16:38:54.814Z,15.37
2019-03-09T16:41:24.390Z,14.17
2019-03-09T16:43:54.014Z,15.20
2019-03-09T16:46:23.766Z,13.27
2019-03-09T16:48:53.391Z,14.87
2019-03-09T16:51:23.093Z,10.90
2019-03-09T16:53:53.022Z,11.00
2019-03-09T16:56:22.740Z,5.90
2019-03-09T16:58:52.267Z,8.47
2019-03-09T17:01:22.190Z,7.50
2019-03-09T17:03:52.251Z,5.13
2019-03-09T17:06:21.790Z,8.10
2019-03-09T17:08:51.420Z,9.70
2019-03-09T17:11:21.074Z,6.63
2019-03-09T17:13:50.576Z,7.00
2019-03-09T17:16:21.126Z,5.60
2019-03-09T17:18:51.005Z,7.93
2019-03-09T17:21:20.671Z,9.23
2019-03-09T17:23:50.099Z,8.90
2019-03-09T17:26:19.914Z,8.23
2019-03-09T17:28:49.458Z,10.43
2019-03-09T17:31:18.971Z,10.97
2019-03-09T17:33:48.916Z,13.67
2019-03-09T17:36:18.547Z,12.90
2019-03-09T17:38:48.148Z,13.47
2019-03-09T17:41:17.826Z,10.80
2019-03-09T17:43:47.822Z,9.37
2019-03-09T17:46:17.343Z,8.90
2019-03-09T17:48:46.994Z,10.13
2019-03-09T17:51:16.895Z,11.37
2019-03-09T17:53:46.463Z,10.67
2019-03-09T17:56:15.990Z,12.53
2019-03-09T17:58:45.788Z,11.70
2019-03-09T18:01:15.661Z,12.70
2019-03-09T18:03:45.157Z,17.00
2019-03-09T18:08:44.300Z,20.60
2019-03-09T18:11:13.889Z,15.00
2019-03-09T18:13:43.470Z,19.20
2019-03-09T18:16:13.263Z,14.63
2019-03-09T18:18:42.959Z,15.80
2019-03-09T18:21:12.472Z,16.53
2019-03-09T18:23:43.876Z,19.13
2019-03-09T18:26:16.764Z,14.77
2019-03-09T18:28:46.387Z,22.47
2019-03-09T18:31:15.871Z,19.40
2019-03-09T18:33:45.518Z,22.83
2019-03-09T18:36:15.043Z,26.47
2019-03-09T18:39:41.960Z,27.57
2019-03-09T18:42:13.213Z,30.97
2019-03-09T18:44:43.852Z,19.80
2019-03-09T18:47:14.389Z,20.30
2019-03-09T18:49:44.849Z,17.73
2019-03-09T18:52:15.327Z,23.57
2019-03-09T18:54:45.852Z,24.63
2019-03-09T18:57:17.683Z,17.80
2019-03-09T18:59:48.151Z,17.63
2019-03-09T19:04:56.290Z,16.90
2019-03-09T19:07:29.524Z,15.90
2019-03-09T19:10:04.423Z,12.27
2019-03-09T19:12:35.394Z,8.97
2019-03-09T19:15:07.101Z,6.83
2019-03-09T19:17:38.352Z,5.93
2019-03-09T19:20:11.167Z,4.83
2019-03-09T19:22:51.472Z,4.40
2019-03-09T19:25:35.439Z,5.67
2019-03-09T19:28:06.082Z,6.93
2019-03-09T19:30:36.648Z,6.77
2019-03-09T19:33:10.068Z,7.53
2019-03-09T19:35:40.836Z,8.83
2019-03-09T19:38:13.861Z,5.47
2019-03-09T19:40:44.980Z,8.13
2019-03-09T19:43:18.278Z,7.60
2019-03-09T19:45:48.864Z,6.87
2019-03-09T19:48:19.434Z,7.90
2019-03-09T19:50:50.191Z,5.77
2019-03-09T19:53:20.904Z,4.93
2019-03-09T19:57:53.627Z,7.53
2019-03-09T20:02:43.926Z,8.07
2019-03-09T20:05:15.590Z,7.73
2019-03-09T20:07:47.308Z,10.87
2019-03-09T20:10:18.403Z,8.97
2019-03-09T20:14:54.200Z,8.50
2019-03-09T20:17:25.859Z,5.80
2019-03-09T20:19:57.286Z,8.00
2019-03-09T20:22:28.891Z,7.50
2019-03-09T20:25:00.711Z,7.47
2019-03-09T20:27:32.261Z,5.87
2019-03-09T20:30:04.454Z,5.03
2019-03-09T20:32:36.849Z,5.23
2019-03-09T20:35:08.376Z,6.23
2019-03-09T20:37:39.938Z,4.60
2019-03-09T20:40:12.035Z,4.77
2019-03-09T20:42:44.151Z,4.63
2019-03-09T20:45:15.851Z,5.43
2019-03-09T20:47:47.370Z,3.03
2019-03-09T20:50:18.769Z,2.03
2019-03-09T20:52:50.568Z,2.93
2019-03-09T20:55:22.061Z,5.57
2019-03-09T20:57:53.546Z,4.50
2019-03-09T21:00:26.733Z,3.97
2019-03-09T21:02:58.259Z,5.17
2019-03-09T21:05:29.695Z,4.60
2019-03-09T21:08:01.130Z,5.33
2019-03-09T21:10:34.051Z,5.83
2019-03-09T21:13:07.215Z,7.50
2019-03-09T21:15:38.659Z,7.53
2019-03-09T21:18:10.151Z,7.80
2019-03-09T21:20:44.475Z,5.23
2019-03-09T21:23:16.187Z,6.37
2019-03-09T21:25:47.693Z,5.63
2019-03-09T21:28:19.207Z,7.43
2019-03-09T21:30:50.671Z,11.43
2019-03-09T21:33:22.304Z,10.63
2019-03-09T21:36:00.039Z,11.07
2019-03-09T21:38:31.853Z,10.17
2019-03-09T21:41:03.525Z,7.33
2019-03-09T21:43:35.071Z,7.90
2019-03-09T21:46:06.555Z,8.50
2019-03-09T21:48:38.033Z,9.87
2019-03-09T21:51:10.084Z,9.93
2019-03-09T21:53:41.703Z,11.20
2019-03-09T21:56:13.517Z,6.93
2019-03-09T21:58:45.180Z,7.47
2019-03-09T22:01:16.615Z,8.77
2019-03-09T22:03:52.749Z,6.63
2019-03-09T22:06:26.016Z,7.50
2019-03-09T22:08:58.972Z,5.50
2019-03-09T22:11:30.450Z,8.67
2019-03-09T22:14:01.926Z,8.83
2019-03-09T22:16:33.353Z,7.47
2019-03-09T22:19:04.731Z,5.50
2019-03-09T22:21:36.263Z,7.70
2019-03-09T22:24:08.685Z,6.00
2019-03-09T22:26:40.276Z,5.40
2019-03-09T22:29:11.697Z,6.03
2019-03-09T22:31:43.161Z,4.83
2019-03-09T22:34:15.846Z,5.47
2019-03-09T22:36:48.322Z,5.63
2019-03-09T22:39:19.770Z,4.53
2019-03-09T22:41:51.225Z,5.00
2019-03-09T22:44:22.745Z,4.83
2019-03-09T22:46:57.125Z,7.20
2019-03-09T22:49:28.581Z,6.27
2019-03-09T22:52:00.251Z,4.77
2019-03-09T22:54:31.661Z,2.97
2019-03-09T22:57:03.172Z,2.53
2019-03-09T22:59:34.569Z,3.57
2019-03-09T23:02:06.746Z,4.93
2019-03-09T23:04:38.294Z,2.43
2019-03-09T23:07:09.721Z,2.60
2019-03-09T23:09:41.107Z,3.67
2019-03-09T23:12:15.639Z,3.43
2019-03-09T23:14:47.111Z,3.37
2019-03-09T23:17:18.585Z,2.13
2019-03-09T23:19:49.974Z,4.83
2019-03-09T23:22:21.511Z,2.53
2019-03-09T23:24:53.021Z,1.70
2019-03-09T23:27:24.461Z,2.60
2019-03-09T23:30:00.433Z,1.23
2019-03-09T23:32:33.902Z,3.17
2019-03-09T23:35:05.277Z,3.40
2019-03-09T23:37:36.969Z,3.50
2019-03-09T23:40:10.335Z,3.13
2019-03-09T23:42:41.765Z,7.73
2019-03-09T23:45:14.101Z,4.83
2019-03-09T23:47:45.659Z,3.27
2019-03-09T23:50:17.186Z,4.13
2019-03-09T23:52:48.768Z,5.97
2019-03-09T23:55:22.956Z,3.63
2019-03-09T23:57:54.672Z,4.67
